Disclaimer

Please do not use the information listed here in-flight or in-navigation, as they are not provided to us by the airports but are provided by volunteers, so they might be outdated.

Search


Regions


Airport information page

Radio informations:
Aerodrome flight information system (AFIS) - 122.45 MHz

Airport informations:
Latitude: 68° 21' 45.31" N
Longitude: 023° 25' 27.56" E
Elevation: 1005 feet - 306 meters
Operating hours: N/A
Operating agency: Civil government, landing fees and diplomatic clearance may be required
Timezone: UTC+2(+3DT) - Last Sunday in March to last Sunday in October
Fuel: Jet A1, without icing nhibitor.

100/130 MIL Spec, low lead, aviation gasoline (BLUE)

Runway information:
03/21 - 6565 x 148 feet< - >2001 x 45 meters

Recent METARs:
EFET 170950Z AUTO 03003KT 4500 -SN OVC026 M14/M15 Q0987
EFET 171020Z AUTO 36003KT 7000 -SN OVC049 M14/M15 Q0987
EFET 171050Z AUTO 36003KT 4400 -SN OVC033 M14/M15 Q0987

Airport on the map: